Time;durP1;ratioP1;P1;durP2;ratioP2;P2;SDS_P1;SDS_P2;PMS_P1;PMS_P2;Temp;Humidity;BMP_temperature;BMP_pressure;BME280_temperature;BME280_humidity;BME280_pressure;Samples;Min_cycle;Max_cycle;Signal;HPM_P1;HPM_P2
2023/06/24 00:00:47;;;;;;;9.00;8.10;;;16.30;99.90;;;;;;5119733;28;20426;-61
2023/06/24 00:03:16;;;;;;;10.07;9.07;;;16.20;99.90;;;;;;5119361;28;20503;-61
2023/06/24 00:05:49;;;;;;;9.60;8.70;;;16.20;1.00;;;;;;5120088;28;20532;-61
2023/06/24 00:08:18;;;;;;;9.13;8.20;;;16.10;1.00;;;;;;5119311;28;20504;-61
2023/06/24 00:10:47;;;;;;;9.00;8.10;;;16.10;99.90;;;;;;5119627;28;20460;-61
2023/06/24 00:13:14;;;;;;;10.43;8.83;;;16.10;99.90;;;;;;5119711;28;20491;-61
2023/06/24 00:15:43;;;;;;;9.10;8.20;;;16.00;99.90;;;;;;5119760;28;20459;-61
2023/06/24 00:18:11;;;;;;;9.37;7.60;;;16.00;1.00;;;;;;5118822;28;20467;-61
2023/06/24 00:20:43;;;;;;;9.17;8.37;;;16.00;1.00;;;;;;5119157;28;20556;-61
2023/06/24 00:23:10;;;;;;;9.03;8.03;;;15.90;1.00;;;;;;5119357;28;20459;-61
2023/06/24 00:25:37;;;;;;;12.27;8.50;;;15.90;93.20;;;;;;5118830;28;20456;-61
2023/06/24 00:28:04;;;;;;;9.00;8.20;;;15.90;1.00;;;;;;5119063;28;20554;-61
2023/06/24 00:30:31;;;;;;;10.27;8.17;;;15.90;1.00;;;;;;5118918;28;20507;-61
2023/06/24 00:32:59;;;;;;;9.77;8.90;;;15.90;1.00;;;;;;5119006;28;20523;-61
2023/06/24 00:35:27;;;;;;;9.83;8.53;;;15.90;1.00;;;;;;5118572;28;20470;-61
2023/06/24 00:37:57;;;;;;;10.97;8.87;;;15.80;1.00;;;;;;5118800;28;20464;-61
2023/06/24 00:40:25;;;;;;;9.67;8.67;;;15.80;1.00;;;;;;5119089;28;20459;-61
2023/06/24 00:42:52;;;;;;;9.53;8.63;;;15.80;1.00;;;;;;5119046;28;20494;-60
2023/06/24 00:45:20;;;;;;;9.30;8.33;;;15.90;1.00;;;;;;5118524;28;20896;-62
2023/06/24 00:47:48;;;;;;;10.10;9.10;;;15.90;1.00;;;;;;5118945;28;20752;-61
2023/06/24 00:50:16;;;;;;;9.87;9.03;;;15.80;99.90;;;;;;5118994;28;20438;-61
2023/06/24 00:52:45;;;;;;;9.40;8.40;;;15.70;1.00;;;;;;5118865;28;20578;-61
2023/06/24 00:55:14;;;;;;;9.60;8.70;;;15.70;1.00;;;;;;5118738;28;20809;-61
2023/06/24 00:57:42;;;;;;;10.53;8.47;;;15.60;16.00;;;;;;5118696;28;20459;-60
2023/06/24 01:00:14;;;;;;;9.47;8.47;;;15.60;1.00;;;;;;5118692;28;20731;-61
2023/06/24 01:02:42;;;;;;;11.10;8.40;;;15.60;91.90;;;;;;5118065;28;20484;-60
2023/06/24 01:05:10;;;;;;;10.30;9.30;;;15.60;1.00;;;;;;5118118;28;20528;-61
2023/06/24 01:07:39;;;;;;;10.37;9.37;;;15.50;1.00;;;;;;5118103;28;20452;-61
2023/06/24 01:10:09;;;;;;;9.57;8.67;;;15.50;86.20;;;;;;5117964;28;20558;-61
2023/06/24 01:12:39;;;;;;;11.40;8.73;;;15.50;1.00;;;;;;5118331;28;20586;-61
2023/06/24 01:15:09;;;;;;;9.50;8.50;;;15.50;1.00;;;;;;5118400;28;20463;-61
2023/06/24 01:17:40;;;;;;;12.57;8.30;;;15.40;99.90;;;;;;5118553;28;20821;-60
2023/06/24 01:20:13;;;;;;;10.53;9.33;;;15.40;94.80;;;;;;5117770;28;20459;-60
2023/06/24 01:23:15;;;;;;;9.83;7.67;;;15.40;99.90;;;;;;5118480;28;20459;-61
2023/06/24 01:26:05;;;;;;;11.30;8.87;;;15.30;1.00;;;;;;5118479;28;20516;-60
2023/06/24 01:28:49;;;;;;;10.33;9.07;;;15.30;1.00;;;;;;5117862;28;20479;-61
2023/06/24 01:31:40;;;;;;;9.73;8.93;;;15.30;1.00;;;;;;5108631;28;20472;-61
2023/06/24 01:34:13;;;;;;;11.47;10.27;;;15.30;1.00;;;;;;5097576;28;20857;-61
2023/06/24 01:36:45;;;;;;;11.43;10.43;;;15.20;1.00;;;;;;5115124;28;20558;-60
2023/06/24 01:39:14;;;;;;;11.97;10.77;;;15.20;99.90;;;;;;5118022;28;20492;-60
2023/06/24 01:41:45;;;;;;;12.30;11.30;;;15.10;99.90;;;;;;5118079;28;20542;-60
2023/06/24 01:44:16;;;;;;;16.43;11.30;;;15.00;1.00;;;;;;5117762;28;20463;-59
2023/06/24 01:46:49;;;;;;;11.50;10.40;;;14.90;1.00;;;;;;5118093;28;20912;-60
2023/06/24 01:49:19;;;;;;;10.97;9.87;;;14.90;99.90;;;;;;5118205;28;20459;-60
2023/06/24 01:51:49;;;;;;;9.90;9.00;;;14.90;1.00;;;;;;5117431;28;20521;-60
2023/06/24 01:54:20;;;;;;;10.20;9.20;;;14.90;90.00;;;;;;5117863;28;20747;-60
2023/06/24 01:56:50;;;;;;;10.97;9.97;;;14.90;1.00;;;;;;5117870;28;20459;-60
2023/06/24 01:59:19;;;;;;;11.87;9.60;;;14.80;1.00;;;;;;5118105;28;20464;-60
2023/06/24 02:01:48;;;;;;;10.40;9.27;;;14.90;99.90;;;;;;5117509;28;20451;-60
2023/06/24 02:04:18;;;;;;;11.33;9.03;;;14.90;78.00;;;;;;5117224;28;20497;-59
2023/06/24 02:06:47;;;;;;;9.63;8.83;;;14.90;99.90;;;;;;5117357;28;20802;-59
2023/06/24 02:09:19;;;;;;;9.90;9.00;;;14.90;99.90;;;;;;5117817;28;20737;-59
2023/06/24 02:11:46;;;;;;;10.90;9.80;;;14.80;1.00;;;;;;5117472;28;20478;-59
2023/06/24 02:14:15;;;;;;;9.57;8.30;;;14.80;99.90;;;;;;5117424;28;20498;-60
2023/06/24 02:16:44;;;;;;;12.43;10.20;;;14.80;99.90;;;;;;5117469;28;20498;-59
2023/06/24 02:19:17;;;;;;;9.90;8.90;;;14.70;1.00;;;;;;5120694;28;20512;-59
2023/06/24 02:21:45;;;;;;;10.03;9.10;;;14.80;1.00;;;;;;5122123;28;20554;-60
2023/06/24 02:24:13;;;;;;;10.03;9.13;;;14.80;99.90;;;;;;5121366;28;20464;-59
2023/06/24 02:26:41;;;;;;;9.67;8.67;;;14.80;1.00;;;;;;5121056;28;20554;-60
2023/06/24 02:29:11;;;;;;;9.87;8.87;;;14.80;99.90;;;;;;5121840;28;20822;-60
2023/06/24 02:31:39;;;;;;;9.40;8.50;;;14.70;1.00;;;;;;5121592;28;20459;-60
2023/06/24 02:34:06;;;;;;;10.20;9.20;;;14.70;1.00;;;;;;5120755;28;20519;-59
2023/06/24 02:36:35;;;;;;;9.10;8.23;;;14.70;4.30;;;;;;5121050;28;20461;-60
2023/06/24 02:39:04;;;;;;;11.97;9.53;;;14.70;1.00;;;;;;5120648;28;20468;-59
2023/06/24 02:41:32;;;;;;;9.63;8.53;;;14.70;99.90;;;;;;5120357;28;20768;-60
2023/06/24 02:43:59;;;;;;;9.67;8.63;;;14.60;1.00;;;;;;5120225;28;20868;-59
2023/06/24 02:46:29;;;;;;;10.37;9.37;;;14.60;99.90;;;;;;5120055;28;20841;-59
2023/06/24 02:48:58;;;;;;;11.23;9.50;;;14.50;1.00;;;;;;5118934;28;20463;-59
2023/06/24 02:51:27;;;;;;;9.33;8.53;;;14.50;41.40;;;;;;5119983;28;20479;-60
2023/06/24 02:53:57;;;;;;;9.90;9.00;;;14.50;1.00;;;;;;5120030;28;20836;-59
2023/06/24 02:56:26;;;;;;;10.27;9.03;;;14.50;99.90;;;;;;5118849;28;20486;-60
2023/06/24 02:58:54;;;;;;;10.10;9.10;;;14.50;1.00;;;;;;5118987;28;20558;-60
2023/06/24 03:01:25;;;;;;;12.17;9.97;;;14.50;99.90;;;;;;5118775;28;20914;-60
2023/06/24 03:03:55;;;;;;;10.30;9.30;;;14.50;1.00;;;;;;5117339;28;20530;-59
2023/06/24 03:06:23;;;;;;;9.67;8.83;;;14.40;99.90;;;;;;5117401;28;20564;-60
2023/06/24 03:08:51;;;;;;;10.33;9.40;;;14.40;99.90;;;;;;5117759;28;20536;-59
2023/06/24 03:11:19;;;;;;;12.73;9.17;;;14.40;99.90;;;;;;5118673;28;20459;-60
2023/06/24 03:13:47;;;;;;;9.50;8.60;;;14.40;29.70;;;;;;5118429;28;20480;-59
2023/06/24 03:16:14;;;;;;;10.77;9.63;;;14.30;1.00;;;;;;5118623;28;20562;-59
2023/06/24 03:18:42;;;;;;;15.03;9.70;;;14.40;1.00;;;;;;5120664;28;20562;-60
2023/06/24 03:21:10;;;;;;;10.10;9.10;;;14.40;1.00;;;;;;5120770;28;20545;-60
2023/06/24 03:23:37;;;;;;;11.27;10.17;;;14.40;1.00;;;;;;5120345;28;20456;-59
2023/06/24 03:26:05;;;;;;;10.20;9.30;;;14.40;1.00;;;;;;5120785;28;20470;-59
2023/06/24 03:28:34;;;;;;;11.00;9.37;;;14.40;99.90;;;;;;5120465;28;20463;-59
2023/06/24 03:31:02;;;;;;;10.07;9.00;;;14.40;99.90;;;;;;5120335;28;20470;-59
2023/06/24 03:33:29;;;;;;;11.67;8.77;;;14.40;38.80;;;;;;5120612;28;20523;-59
2023/06/24 03:35:56;;;;;;;10.60;9.60;;;14.50;99.90;;;;;;5120153;28;20912;-58
2023/06/24 03:38:23;;;;;;;10.73;9.73;;;14.50;1.00;;;;;;5119847;28;20473;-58
2023/06/24 03:40:51;;;;;;;10.03;9.00;;;14.50;1.00;;;;;;5120346;28;20537;-59
2023/06/24 03:43:18;;;;;;;11.47;10.27;;;14.50;1.00;;;;;;5119577;28;20930;-59
2023/06/24 03:45:47;;;;;;;10.30;9.33;;;14.50;27.10;;;;;;5120585;28;20472;-59
2023/06/24 03:48:15;;;;;;;11.30;10.20;;;14.50;99.90;;;;;;5119944;28;20464;-59
2023/06/24 03:50:42;;;;;;;16.00;10.77;;;14.50;99.90;;;;;;5119870;28;20448;-59
2023/06/24 03:53:09;;;;;;;11.00;9.70;;;14.50;99.90;;;;;;5120225;28;20460;-59
2023/06/24 03:55:36;;;;;;;11.03;9.93;;;14.60;99.90;;;;;;5120076;27;20499;-59
2023/06/24 03:58:03;;;;;;;11.40;10.20;;;14.60;99.90;;;;;;5119372;28;20437;-59
2023/06/24 04:00:31;;;;;;;11.03;10.03;;;14.60;99.90;;;;;;5119285;28;20506;-59
2023/06/24 04:03:01;;;;;;;12.30;10.10;;;14.60;1.00;;;;;;5119738;28;20854;-59
2023/06/24 04:05:30;;;;;;;11.90;10.33;;;14.60;49.50;;;;;;5119507;28;20903;-59
2023/06/24 04:07:57;;;;;;;11.30;10.00;;;14.60;99.90;;;;;;5119728;28;20764;-59
2023/06/24 04:10:24;;;;;;;13.57;11.43;;;14.60;99.90;;;;;;5119665;28;20893;-58
2023/06/24 04:12:52;;;;;;;12.17;10.90;;;14.70;62.90;;;;;;5119793;28;20520;-59
2023/06/24 04:15:19;;;;;;;12.23;10.60;;;14.80;1.00;;;;;;5119865;28;20467;-59
2023/06/24 04:17:46;;;;;;;15.43;11.07;;;14.80;1.00;;;;;;5118978;28;20499;-59
2023/06/24 04:20:15;;;;;;;13.23;11.00;;;14.80;57.00;;;;;;5119669;28;20881;-59
2023/06/24 04:22:43;;;;;;;15.23;11.70;;;14.90;1.00;;;;;;5119381;28;20538;-59
2023/06/24 04:25:11;;;;;;;12.77;11.53;;;15.00;1.00;;;;;;5119332;28;20580;-59
2023/06/24 04:27:39;;;;;;;12.50;11.37;;;15.10;99.90;;;;;;5119342;28;20896;-59
2023/06/24 04:30:07;;;;;;;12.23;11.07;;;15.10;55.00;;;;;;5119020;28;20482;-59
2023/06/24 04:32:34;;;;;;;11.43;10.23;;;15.20;82.50;;;;;;5119158;28;20492;-59
2023/06/24 04:35:02;;;;;;;11.53;10.40;;;15.40;11.50;;;;;;5119483;28;20483;-59
2023/06/24 04:37:31;;;;;;;10.70;9.40;;;15.40;1.00;;;;;;5119310;28;20459;-60
2023/06/24 04:39:58;;;;;;;10.03;9.03;;;15.50;1.00;;;;;;5118805;28;20461;-60
2023/06/24 04:42:25;;;;;;;10.57;9.40;;;15.60;82.40;;;;;;5117791;27;20434;-59
2023/06/24 04:44:53;;;;;;;10.73;9.80;;;15.50;99.90;;;;;;5118880;28;20438;-59
2023/06/24 04:47:20;;;;;;;13.40;9.80;;;15.60;98.30;;;;;;5119057;28;20832;-59
2023/06/24 04:49:47;;;;;;;11.13;9.70;;;15.60;99.90;;;;;;5118532;28;20466;-59
2023/06/24 04:52:16;;;;;;;12.23;10.17;;;15.70;38.40;;;;;;5118887;28;20468;-59
2023/06/24 04:54:47;;;;;;;11.23;10.10;;;15.60;99.90;;;;;;5118455;28;20578;-59
2023/06/24 04:57:25;;;;;;;11.27;10.10;;;15.70;1.00;;;;;;5118781;28;20469;-60
2023/06/24 04:59:52;;;;;;;11.80;10.70;;;15.70;18.70;;;;;;5118092;28;20463;-60
2023/06/24 05:02:27;;;;;;;14.70;10.77;;;15.80;1.00;;;;;;5156437;27;20531;-60
2023/06/24 05:04:55;;;;;;;16.13;11.27;;;16.00;1.00;;;;;;5156420;27;20460;-61
2023/06/24 05:07:22;;;;;;;14.50;11.50;;;16.10;99.90;;;;;;5156009;27;20458;-60
2023/06/24 05:09:51;;;;;;;12.13;11.07;;;16.20;99.90;;;;;;5155840;27;20463;-60
2023/06/24 05:12:18;;;;;;;12.20;11.00;;;16.30;99.90;;;;;;5156296;27;20464;-60
2023/06/24 05:14:45;;;;;;;12.83;11.53;;;16.50;99.90;;;;;;5156413;27;20453;-60
2023/06/24 05:17:12;;;;;;;12.77;11.57;;;16.60;99.90;;;;;;5155953;27;20946;-60
2023/06/24 05:19:41;;;;;;;12.50;10.20;;;16.80;99.90;;;;;;5155918;27;20486;-60
2023/06/24 05:22:08;;;;;;;11.40;9.90;;;17.00;99.90;;;;;;5155945;27;20525;-60
2023/06/24 05:24:35;;;;;;;11.20;9.93;;;17.10;1.00;;;;;;5155689;27;20453;-60
2023/06/24 05:27:06;;;;;;;10.53;9.53;;;17.20;99.90;;;;;;5155914;27;20442;-60
2023/06/24 05:29:33;;;;;;;9.80;8.90;;;17.30;1.00;;;;;;5153774;27;20470;-61
2023/06/24 05:32:03;;;;;;;9.83;8.90;;;17.40;1.00;;;;;;5151180;27;20493;-60
2023/06/24 05:34:30;;;;;;;10.50;9.43;;;17.50;99.90;;;;;;5176132;27;20491;-60
2023/06/24 05:36:59;;;;;;;9.57;8.50;;;17.60;99.90;;;;;;5176531;27;20535;-60
2023/06/24 05:39:26;;;;;;;10.60;8.50;;;17.70;99.90;;;;;;5176240;27;20532;-60
2023/06/24 05:41:53;;;;;;;9.47;8.13;;;17.90;99.90;;;;;;5176117;27;20489;-59
2023/06/24 05:44:22;;;;;;;9.83;8.90;;;18.10;99.90;;;;;;5172437;27;20530;-59
2023/06/24 05:46:49;;;;;;;10.10;9.07;;;18.20;99.90;;;;;;5173421;27;20468;-59
2023/06/24 05:49:17;;;;;;;8.70;7.80;;;18.40;76.00;;;;;;5175015;27;20469;-59
2023/06/24 05:51:44;;;;;;;8.30;7.50;;;18.50;1.00;;;;;;5176005;27;20488;-59
2023/06/24 05:54:12;;;;;;;8.97;8.07;;;18.60;1.00;;;;;;5175879;27;20940;-59
2023/06/24 05:56:40;;;;;;;8.87;7.90;;;18.70;1.00;;;;;;5176152;27;20543;-59
2023/06/24 05:59:07;;;;;;;8.17;7.47;;;18.90;1.00;;;;;;5172671;27;20471;-59
2023/06/24 06:01:34;;;;;;;9.20;8.40;;;19.00;1.00;;;;;;5159026;27;20592;-59
2023/06/24 06:04:01;;;;;;;9.03;8.13;;;19.00;1.00;;;;;;5162188;27;20540;-60
2023/06/24 06:06:29;;;;;;;10.30;7.77;;;19.10;1.00;;;;;;5174506;27;20901;-60
2023/06/24 06:08:57;;;;;;;8.30;7.60;;;19.20;1.00;;;;;;5174459;27;20901;-59
2023/06/24 06:11:25;;;;;;;9.80;8.40;;;19.40;1.00;;;;;;5173646;27;20492;-60
2023/06/24 06:13:53;;;;;;;9.17;8.23;;;19.70;1.00;;;;;;5138086;27;20451;-59
2023/06/24 06:16:20;;;;;;;8.93;8.03;;;19.90;1.00;;;;;;5139099;27;20467;-60
2023/06/24 06:18:47;;;;;;;10.23;9.33;;;20.10;1.00;;;;;;5138010;27;20462;-60
2023/06/24 06:21:14;;;;;;;8.70;7.83;;;20.30;1.00;;;;;;5118009;28;20487;-60
2023/06/24 06:23:42;;;;;;;9.67;8.77;;;20.40;1.00;;;;;;5117926;28;20466;-58
2023/06/24 06:26:09;;;;;;;8.97;7.97;;;20.60;1.00;;;;;;5123430;27;20546;-59
2023/06/24 06:28:37;;;;;;;8.80;7.90;;;20.70;1.00;;;;;;5139162;27;20462;-59
2023/06/24 06:31:05;;;;;;;9.07;8.17;;;20.80;1.00;;;;;;5146475;27;20552;-59
2023/06/24 06:33:32;;;;;;;9.77;8.87;;;20.90;1.00;;;;;;5140369;27;20477;-60
2023/06/24 06:35:59;;;;;;;11.37;9.87;;;21.10;1.00;;;;;;5139162;27;20476;-59
2023/06/24 06:38:27;;;;;;;9.83;8.93;;;21.10;99.90;;;;;;5126535;27;20760;-59
2023/06/24 06:40:54;;;;;;;9.60;8.70;;;21.20;99.90;;;;;;5119537;28;20487;-59
2023/06/24 06:43:22;;;;;;;10.90;9.80;;;21.20;1.00;;;;;;5119529;28;20459;-59
2023/06/24 06:45:51;;;;;;;10.07;9.07;;;21.60;99.90;;;;;;5123702;27;20465;-59
2023/06/24 06:48:18;;;;;;;10.07;9.07;;;21.80;1.00;;;;;;5138944;27;20569;-59
2023/06/24 06:50:45;;;;;;;9.87;9.07;;;22.20;1.00;;;;;;5121669;27;20463;-58
2023/06/24 06:53:14;;;;;;;10.23;9.30;;;22.30;1.00;;;;;;5140305;27;20492;-59
2023/06/24 06:55:42;;;;;;;8.30;7.60;;;22.40;1.00;;;;;;5135651;27;20474;-59
2023/06/24 06:58:10;;;;;;;9.30;8.30;;;22.50;1.00;;;;;;5119451;28;20475;-59
2023/06/24 07:00:37;;;;;;;10.00;9.10;;;22.90;1.00;;;;;;5145887;27;20500;-59
2023/06/24 07:03:06;;;;;;;10.20;8.97;;;23.00;1.00;;;;;;5152666;27;20553;-59
2023/06/24 07:05:34;;;;;;;10.03;9.13;;;23.10;99.90;;;;;;5150326;27;20799;-59
2023/06/24 07:08:01;;;;;;;10.70;9.77;;;23.20;1.00;;;;;;5128353;27;20550;-57
2023/06/24 07:10:28;;;;;;;10.97;9.80;;;23.30;99.90;;;;;;5121337;27;20467;-58
2023/06/24 07:12:57;;;;;;;10.63;8.73;;;23.40;99.90;;;;;;5136156;27;20517;-58
2023/06/24 07:15:26;;;;;;;9.87;8.87;;;23.40;99.90;;;;;;5132981;27;20478;-57
2023/06/24 07:17:53;;;;;;;10.10;9.20;;;23.40;99.90;;;;;;5136133;27;20462;-57
2023/06/24 07:20:23;;;;;;;11.27;10.17;;;23.50;99.90;;;;;;5154980;27;20470;-56
2023/06/24 07:22:50;;;;;;;10.20;9.30;;;23.80;1.00;;;;;;5156290;27;20562;-57
2023/06/24 07:25:17;;;;;;;10.13;8.97;;;24.10;99.90;;;;;;5133787;27;20512;-56
2023/06/24 07:27:44;;;;;;;11.33;10.17;;;24.30;99.90;;;;;;5118969;28;20543;-56
2023/06/24 07:30:12;;;;;;;11.60;10.60;;;24.90;99.90;;;;;;5127564;27;20503;-57
2023/06/24 07:32:39;;;;;;;10.60;9.60;;;25.40;99.90;;;;;;5127903;27;20874;-56
2023/06/24 07:35:07;;;;;;;10.37;9.43;;;25.80;99.90;;;;;;5140660;27;20505;-56
2023/06/24 07:37:38;;;;;;;11.90;10.07;;;26.20;99.90;;;;;;5126483;27;20479;-55
2023/06/24 07:40:09;;;;;;;10.80;9.90;;;26.50;99.90;;;;;;5118452;28;20455;-56
2023/06/24 07:42:36;;;;;;;11.53;9.07;;;26.70;99.90;;;;;;5118700;28;20527;-56
2023/06/24 07:45:04;;;;;;;11.93;10.80;;;26.90;99.90;;;;;;5129869;27;20807;-57
2023/06/24 07:47:31;;;;;;;12.40;11.30;;;26.30;99.90;;;;;;5155164;27;20469;-55
2023/06/24 07:49:59;;;;;;;11.33;10.33;;;25.90;99.90;;;;;;5148153;27;20469;-57
2023/06/24 07:52:26;;;;;;;11.53;10.53;;;25.80;99.90;;;;;;5136274;27;20457;-56
2023/06/24 07:54:55;;;;;;;12.37;11.17;;;26.00;99.90;;;;;;5118418;28;20455;-56
2023/06/24 07:57:22;;;;;;;10.97;9.97;;;26.30;99.90;;;;;;5117766;28;20550;-56
2023/06/24 07:59:49;;;;;;;14.30;12.97;;;26.50;99.90;;;;;;5118239;28;20542;-56
2023/06/24 08:02:16;;;;;;;13.17;12.07;;;26.90;99.90;;;;;;5150674;27;20497;-56
2023/06/24 08:04:43;;;;;;;13.57;12.17;;;26.60;99.90;;;;;;5150501;27;20553;-57
2023/06/24 08:07:11;;;;;;;14.00;12.60;;;26.50;99.90;;;;;;5144220;27;20876;-56
2023/06/24 08:09:38;;;;;;;12.77;11.47;;;26.40;99.90;;;;;;5117893;28;20833;-55
2023/06/24 08:12:08;;;;;;;14.33;13.13;;;26.80;99.90;;;;;;5117930;28;20539;-55
2023/06/24 08:14:35;;;;;;;14.97;13.43;;;27.00;99.90;;;;;;5117700;28;20516;-56
2023/06/24 08:17:02;;;;;;;15.10;13.80;;;27.30;99.90;;;;;;5139552;27;20477;-57
2023/06/24 08:19:29;;;;;;;19.07;14.77;;;27.60;99.90;;;;;;5149651;27;20716;-57
2023/06/24 08:21:57;;;;;;;15.50;14.30;;;27.40;99.90;;;;;;5127244;27;20556;-56
2023/06/24 08:24:24;;;;;;;13.87;12.63;;;27.10;99.90;;;;;;5126550;27;20537;-56
2023/06/24 08:26:52;;;;;;;16.13;14.70;;;27.00;99.90;;;;;;5116322;28;20482;-56
2023/06/24 08:29:21;;;;;;;17.47;15.70;;;27.00;99.90;;;;;;5116035;28;20463;-56
2023/06/24 08:31:48;;;;;;;18.30;16.47;;;26.70;99.90;;;;;;5116395;28;20550;-56
2023/06/24 08:34:15;;;;;;;15.53;13.97;;;26.80;99.90;;;;;;5116912;28;20877;-56
2023/06/24 08:36:43;;;;;;;18.40;16.60;;;27.20;99.90;;;;;;5116774;28;20550;-56
2023/06/24 08:39:10;;;;;;;19.93;17.93;;;27.30;99.90;;;;;;5116890;28;20491;-56
2023/06/24 08:41:38;;;;;;;16.67;14.97;;;27.70;99.90;;;;;;5115528;28;20496;-57
2023/06/24 08:44:05;;;;;;;17.43;15.83;;;27.90;99.90;;;;;;5116050;28;20558;-61
2023/06/24 08:46:35;;;;;;;17.90;15.97;;;28.10;1.00;;;;;;5115804;28;20561;-56
2023/06/24 08:49:10;;;;;;;16.80;15.20;;;27.90;99.90;;;;;;5116459;28;20455;-56
2023/06/24 08:51:42;;;;;;;15.83;14.30;;;27.90;99.90;;;;;;5116545;28;20878;-57
2023/06/24 08:54:11;;;;;;;16.80;15.10;;;28.00;99.90;;;;;;5116201;28;20546;-57
2023/06/24 08:56:39;;;;;;;14.87;13.37;;;27.80;99.90;;;;;;5117959;28;20848;-57
2023/06/24 08:59:07;;;;;;;15.30;13.80;;;28.10;99.90;;;;;;5117049;28;20508;-57
2023/06/24 09:01:36;;;;;;;15.03;13.60;;;27.70;99.90;;;;;;5135536;27;20531;-57
2023/06/24 09:04:03;;;;;;;13.97;12.73;;;28.00;99.90;;;;;;5144804;27;20813;-57
2023/06/24 09:06:32;;;;;;;14.37;13.07;;;28.50;99.90;;;;;;5133856;28;20478;-57
2023/06/24 09:08:59;;;;;;;14.03;12.70;;;28.40;99.90;;;;;;5117873;28;20495;-57
2023/06/24 09:11:28;;;;;;;12.20;11.00;;;28.60;99.90;;;;;;5116958;28;20466;-56
2023/06/24 09:13:58;;;;;;;12.13;10.70;;;28.30;99.90;;;;;;5117267;28;20762;-57
2023/06/24 09:16:26;;;;;;;11.17;9.93;;;28.10;99.90;;;;;;5135870;27;20831;-58
2023/06/24 09:18:55;;;;;;;11.50;10.50;;;28.40;99.90;;;;;;5145648;27;20505;-57
2023/06/24 09:21:26;;;;;;;13.20;11.40;;;28.60;99.90;;;;;;5140179;27;20498;-56
2023/06/24 09:23:56;;;;;;;9.83;8.87;;;28.60;99.90;;;;;;5119932;28;20512;-58
2023/06/24 09:26:29;;;;;;;10.93;9.93;;;28.30;99.90;;;;;;5115682;28;20767;-58
2023/06/24 09:28:58;;;;;;;12.90;11.03;;;28.70;99.90;;;;;;5116642;28;20461;-59
2023/06/24 09:31:25;;;;;;;12.63;11.43;;;28.80;99.90;;;;;;5133133;27;20607;-57
2023/06/24 09:33:57;;;;;;;12.87;11.67;;;28.70;99.90;;;;;;5154303;27;20463;-57
2023/06/24 09:36:25;;;;;;;12.57;11.43;;;29.30;99.90;;;;;;5146608;27;20470;-59
2023/06/24 09:38:52;;;;;;;10.43;9.43;;;29.80;99.90;;;;;;5129751;28;20782;-57
2023/06/24 09:41:20;;;;;;;11.23;10.13;;;29.80;99.90;;;;;;5114976;28;20515;-57
2023/06/24 09:43:47;;;;;;;10.03;9.10;;;29.50;99.90;;;;;;5115335;28;20491;-58
2023/06/24 09:46:15;;;;;;;13.00;11.90;;;30.20;99.90;;;;;;5124227;27;20516;-57
2023/06/24 09:48:43;;;;;;;13.40;12.00;;;29.70;99.90;;;;;;5131571;27;20910;-58
2023/06/24 09:51:14;;;;;;;12.87;11.67;;;30.00;99.90;;;;;;5152788;27;20475;-57
2023/06/24 09:53:43;;;;;;;12.30;11.03;;;30.30;99.90;;;;;;5144695;27;20454;-58
2023/06/24 09:56:12;;;;;;;11.13;10.07;;;30.20;99.90;;;;;;5122437;27;20462;-57
2023/06/24 09:58:41;;;;;;;12.13;10.63;;;29.80;99.90;;;;;;5120025;28;20486;-57
2023/06/24 10:01:09;;;;;;;12.90;11.60;;;30.30;99.90;;;;;;5131330;27;20945;-56
2023/06/24 10:03:38;;;;;;;11.73;10.47;;;30.70;99.90;;;;;;5153199;27;20500;-58
2023/06/24 10:06:07;;;;;;;10.47;9.57;;;30.70;99.90;;;;;;5139974;27;20466;-58
2023/06/24 10:08:36;;;;;;;11.70;10.80;;;30.80;1.00;;;;;;5134172;27;20465;-58
2023/06/24 10:11:03;;;;;;;11.27;10.37;;;31.00;99.90;;;;;;5129834;27;20553;-58
2023/06/24 10:13:31;;;;;;;10.70;9.67;;;30.60;99.90;;;;;;5118514;28;20922;-58
2023/06/24 10:15:58;;;;;;;10.20;9.40;;;30.90;1.00;;;;;;5130343;27;20465;-59
2023/06/24 10:18:36;;;;;;;9.97;9.17;;;30.70;1.00;;;;;;5134426;27;20784;-57
2023/06/24 10:21:04;;;;;;;10.07;9.23;;;30.60;99.90;;;;;;5150161;27;20493;-57
2023/06/24 10:23:40;;;;;;;9.43;8.57;;;30.50;1.00;;;;;;5137923;27;20588;-59
2023/06/24 10:26:11;;;;;;;8.67;7.80;;;30.80;99.90;;;;;;5134939;27;20449;-59
2023/06/24 10:29:10;;;;;;;8.60;7.60;;;31.40;1.00;;;;;;5148668;27;20466;-58
2023/06/24 10:31:53;;;;;;;11.40;9.30;;;31.80;1.00;;;;;;5140382;27;20863;-58
2023/06/24 10:34:41;;;;;;;8.37;7.60;;;31.90;99.90;;;;;;5126482;27;20462;-58
2023/06/24 10:37:14;;;;;;;8.93;8.13;;;31.70;1.00;;;;;;5116530;28;20550;-58
2023/06/24 10:39:50;;;;;;;8.00;7.30;;;31.00;1.00;;;;;;5116602;28;20466;-57
2023/06/24 10:42:38;;;;;;;7.20;6.50;;;31.00;1.00;;;;;;5116465;28;20894;-58
2023/06/24 10:45:17;;;;;;;9.10;8.40;;;30.80;1.00;;;;;;5116993;28;20482;-58
2023/06/24 10:47:46;;;;;;;8.57;7.77;;;30.90;1.00;;;;;;5127373;27;20904;-57
2023/06/24 10:50:15;;;;;;;8.70;7.80;;;30.60;99.90;;;;;;5125545;27;20569;-57
2023/06/24 10:52:45;;;;;;;8.43;7.67;;;30.90;99.90;;;;;;5117807;28;20447;-57
2023/06/24 10:55:16;;;;;;;9.40;7.77;;;31.00;1.00;;;;;;5118303;28;20557;-59
2023/06/24 10:57:45;;;;;;;8.80;7.90;;;31.60;1.00;;;;;;5118369;28;20463;-57
2023/06/24 11:00:14;;;;;;;9.27;8.50;;;31.60;1.00;;;;;;5117665;28;20768;-57
2023/06/24 11:02:41;;;;;;;8.43;7.27;;;31.20;1.00;;;;;;5118230;28;20491;-56
2023/06/24 11:05:09;;;;;;;7.27;6.67;;;31.20;1.00;;;;;;5119099;28;20469;-57
2023/06/24 11:07:38;;;;;;;7.83;7.13;;;30.90;1.00;;;;;;5123915;27;20466;-55
2023/06/24 11:10:07;;;;;;;8.70;8.00;;;30.40;1.00;;;;;;5132121;27;20817;-56
2023/06/24 11:12:36;;;;;;;8.13;7.43;;;29.20;1.00;;;;;;5118640;28;20456;-58
2023/06/24 11:15:06;;;;;;;7.20;6.60;;;29.70;1.00;;;;;;5118811;28;20459;-57
2023/06/24 11:17:34;;;;;;;7.23;6.63;;;30.60;1.00;;;;;;5134073;27;20501;-61
2023/06/24 11:20:02;;;;;;;6.87;6.23;;;31.10;1.00;;;;;;5125848;27;20463;-57
2023/06/24 11:22:30;;;;;;;7.50;6.87;;;31.40;1.00;;;;;;5126244;27;20545;-56
2023/06/24 11:24:57;;;;;;;7.50;6.90;;;31.80;17.70;;;;;;5138602;27;20469;-56
2023/06/24 11:27:28;;;;;;;6.53;6.07;;;31.40;1.00;;;;;;5120785;27;20883;-53
2023/06/24 11:29:58;;;;;;;7.57;6.87;;;30.50;12.60;;;;;;5124300;27;20492;-58
2023/06/24 11:32:35;;;;;;;7.47;6.87;;;30.50;1.00;;;;;;5136240;27;20465;-57
2023/06/24 11:35:03;;;;;;;8.00;7.27;;;31.00;1.00;;;;;;5118632;28;20500;-56
2023/06/24 11:37:33;;;;;;;8.20;7.43;;;31.00;99.90;;;;;;5118200;28;20466;-56
2023/06/24 11:40:05;;;;;;;6.30;5.80;;;31.40;1.00;;;;;;5125058;27;20466;-57
2023/06/24 11:42:33;;;;;;;6.77;6.10;;;31.50;99.90;;;;;;5135363;27;20555;-56
2023/06/24 11:45:06;;;;;;;6.53;6.00;;;32.00;99.90;;;;;;5128209;27;20459;-57
2023/06/24 11:47:36;;;;;;;6.30;5.90;;;31.80;99.90;;;;;;5118620;27;20797;-56
2023/06/24 11:50:05;;;;;;;5.30;4.90;;;32.00;3.10;;;;;;5118361;28;20465;-56
2023/06/24 11:52:43;;;;;;;5.93;5.33;;;32.40;1.00;;;;;;5118771;28;20463;-57
2023/06/24 11:55:17;;;;;;;6.17;5.57;;;31.80;99.90;;;;;;5118971;28;20459;-57
2023/06/24 11:57:55;;;;;;;6.20;5.60;;;31.40;65.50;;;;;;5119347;27;20823;-57
2023/06/24 12:00:24;;;;;;;5.30;4.90;;;32.00;99.90;;;;;;5129128;27;20508;-57
2023/06/24 12:02:55;;;;;;;4.87;4.47;;;31.60;98.70;;;;;;5117434;28;20490;-57
2023/06/24 12:05:29;;;;;;;5.83;5.33;;;31.90;99.90;;;;;;5123097;27;20545;-57
2023/06/24 12:07:58;;;;;;;5.27;4.80;;;32.50;99.90;;;;;;5124522;27;20462;-57
2023/06/24 12:10:25;;;;;;;4.80;4.40;;;32.60;1.00;;;;;;5118056;27;20471;-57
2023/06/24 12:12:53;;;;;;;6.17;5.70;;;32.40;1.00;;;;;;5132209;27;20468;-57
2023/06/24 12:15:21;;;;;;;6.93;6.43;;;32.40;58.10;;;;;;5132250;27;20458;-58
2023/06/24 12:17:48;;;;;;;6.60;6.00;;;32.30;1.00;;;;;;5134867;27;20458;-57
2023/06/24 12:20:18;;;;;;;6.33;5.77;;;32.60;1.00;;;;;;5131767;27;20443;-57
2023/06/24 12:22:45;;;;;;;5.47;5.07;;;31.80;1.00;;;;;;5132255;27;20486;-59
2023/06/24 12:25:13;;;;;;;5.97;5.57;;;31.10;1.00;;;;;;5131912;27;20526;-57
2023/06/24 12:27:41;;;;;;;6.03;5.53;;;30.80;1.00;;;;;;5144418;27;20927;-57
2023/06/24 12:30:09;;;;;;;5.70;4.10;;;31.40;1.00;;;;;;5127608;27;20912;-58
2023/06/24 12:32:37;;;;;;;6.30;5.80;;;32.10;1.00;;;;;;5149719;27;20509;-57
2023/06/24 12:35:08;;;;;;;5.73;5.23;;;32.60;1.00;;;;;;5135452;27;20565;-56
2023/06/24 12:37:37;;;;;;;5.43;4.93;;;32.40;1.00;;;;;;5133926;27;20470;-59
2023/06/24 12:40:05;;;;;;;5.47;5.07;;;32.80;1.00;;;;;;5134376;27;20473;-58
2023/06/24 12:42:33;;;;;;;6.17;5.67;;;33.30;1.00;;;;;;5130803;27;20566;-59
2023/06/24 12:45:01;;;;;;;5.77;5.33;;;33.50;1.00;;;;;;5132085;27;21079;-58
2023/06/24 12:47:28;;;;;;;5.40;4.90;;;33.50;1.00;;;;;;5136268;27;20581;-57
2023/06/24 12:49:56;;;;;;;5.93;5.43;;;33.70;1.00;;;;;;5134011;27;20560;-57
2023/06/24 12:52:23;;;;;;;4.60;4.30;;;33.40;24.10;;;;;;5132911;27;20458;-57